createdAt,value
2019-02-09T00:03:11.618Z,24.03
2019-02-09T00:08:17.028Z,24.07
2019-02-09T00:13:22.543Z,22.50
2019-02-09T00:18:27.875Z,29.40
2019-02-09T00:23:33.181Z,28.00
2019-02-09T00:28:38.495Z,26.23
2019-02-09T00:33:44.036Z,26.60
2019-02-09T00:38:49.349Z,26.83
2019-02-09T00:43:54.659Z,25.60
2019-02-09T00:48:59.991Z,26.33
2019-02-09T00:54:05.635Z,21.77
2019-02-09T00:59:10.964Z,17.33
2019-02-09T01:04:16.288Z,21.43
2019-02-09T01:09:21.611Z,26.43
2019-02-09T01:14:26.899Z,23.50
2019-02-09T01:19:32.288Z,24.70
2019-02-09T01:24:37.557Z,25.03
2019-02-09T01:29:42.907Z,27.53
2019-02-09T01:34:48.219Z,25.40
2019-02-09T01:39:53.570Z,29.43
2019-02-09T01:44:58.880Z,31.10
2019-02-09T01:50:05.706Z,28.50
2019-02-09T01:55:11.894Z,31.00
2019-02-09T02:00:19.618Z,31.33
2019-02-09T02:05:25.386Z,28.10
2019-02-09T02:10:35.515Z,29.93
2019-02-09T02:15:42.027Z,29.33
2019-02-09T02:20:47.331Z,28.90
2019-02-09T02:25:52.627Z,29.53
2019-02-09T02:30:58.050Z,28.17
2019-02-09T02:36:03.369Z,39.87
2019-02-09T02:41:08.677Z,30.87
2019-02-09T02:46:14.355Z,31.87
2019-02-09T02:51:19.659Z,33.50
2019-02-09T02:56:24.983Z,34.17
2019-02-09T03:01:30.299Z,32.63
2019-02-09T03:06:35.637Z,31.60
2019-02-09T03:11:40.949Z,29.47
2019-02-09T03:16:46.251Z,27.43
2019-02-09T03:21:51.564Z,30.03
2019-02-09T03:26:56.994Z,26.53
2019-02-09T03:32:02.557Z,24.50
2019-02-09T03:37:08.189Z,39.30
2019-02-09T03:42:13.737Z,27.33
2019-02-09T03:47:19.295Z,27.03
2019-02-09T03:52:24.828Z,30.50
2019-02-09T03:57:30.371Z,27.53
2019-02-09T04:02:35.983Z,31.60
2019-02-09T04:07:41.657Z,28.97
2019-02-09T04:12:47.424Z,35.00
2019-02-09T04:17:53.001Z,32.97
2019-02-09T04:22:58.563Z,33.20
2019-02-09T04:28:04.088Z,42.80
2019-02-09T04:33:09.786Z,39.13
2019-02-09T04:38:15.342Z,53.63
2019-02-09T04:43:20.900Z,51.50
2019-02-09T04:48:26.411Z,37.97
2019-02-09T04:53:31.926Z,41.33
2019-02-09T04:58:37.541Z,38.80
2019-02-09T05:03:43.065Z,31.27
2019-02-09T05:08:48.695Z,37.30
2019-02-09T05:13:54.239Z,49.53
2019-02-09T05:19:00.302Z,40.47
2019-02-09T05:24:06.066Z,44.67
2019-02-09T05:29:12.453Z,40.77
2019-02-09T05:34:18.067Z,39.13
2019-02-09T05:39:23.686Z,40.20
2019-02-09T05:44:29.184Z,38.50
2019-02-09T05:49:34.664Z,37.07
2019-02-09T05:54:40.048Z,34.27
2019-02-09T05:59:45.663Z,35.60
2019-02-09T06:04:51.005Z,30.53
2019-02-09T06:09:56.500Z,29.17
2019-02-09T06:15:02.090Z,37.73
2019-02-09T06:20:08.935Z,37.13
2019-02-09T06:25:14.590Z,50.00
2019-02-09T06:30:22.191Z,56.60
2019-02-09T06:35:27.782Z,46.00
2019-02-09T06:40:33.351Z,44.50
2019-02-09T06:45:38.993Z,38.27
2019-02-09T06:50:44.609Z,35.07
2019-02-09T06:55:50.151Z,30.57
2019-02-09T07:00:56.690Z,30.87
2019-02-09T07:06:02.323Z,29.13
2019-02-09T07:11:08.641Z,29.20
2019-02-09T07:16:14.236Z,32.67
2019-02-09T07:21:19.850Z,32.27
2019-02-09T07:26:25.387Z,29.87
2019-02-09T07:31:30.945Z,31.63
2019-02-09T07:36:36.514Z,26.43
2019-02-09T07:41:42.119Z,31.13
2019-02-09T07:46:47.726Z,30.13
2019-02-09T07:51:53.311Z,29.60
2019-02-09T07:56:59.193Z,29.00
2019-02-09T08:02:04.986Z,33.07
2019-02-09T08:07:10.714Z,35.00
2019-02-09T08:12:16.323Z,34.77
2019-02-09T08:17:21.907Z,31.83
2019-02-09T08:22:27.714Z,33.73
2019-02-09T08:27:33.384Z,23.47
2019-02-09T08:32:39.196Z,50.47
2019-02-09T08:37:44.858Z,87.40
2019-02-09T08:42:50.448Z,70.90
2019-02-09T08:47:55.989Z,29.40
2019-02-09T08:53:02.478Z,17.00
2019-02-09T08:58:07.999Z,19.70
2019-02-09T09:03:13.500Z,17.07
2019-02-09T09:08:19.066Z,16.70
2019-02-09T09:13:24.399Z,17.07
2019-02-09T09:18:29.626Z,16.43
2019-02-09T09:23:34.944Z,16.87
2019-02-09T09:28:40.351Z,18.57
2019-02-09T09:33:45.687Z,17.70
2019-02-09T09:38:52.191Z,16.77
2019-02-09T09:43:58.137Z,18.07
2019-02-09T09:49:03.718Z,19.30
2019-02-09T09:54:09.633Z,18.07
2019-02-09T09:59:15.771Z,15.20
2019-02-09T10:04:22.199Z,16.00
2019-02-09T10:09:28.338Z,14.10
2019-02-09T10:14:35.181Z,14.60
2019-02-09T10:19:42.014Z,13.53
2019-02-09T10:24:48.338Z,16.53
2019-02-09T10:29:54.510Z,12.50
2019-02-09T10:35:01.884Z,14.20
2019-02-09T10:40:09.930Z,12.93
2019-02-09T10:45:23.517Z,14.07
2019-02-09T10:50:36.071Z,14.43
2019-02-09T10:55:42.933Z,13.53
2019-02-09T11:00:55.290Z,10.17
2019-02-09T11:06:00.655Z,10.07
2019-02-09T11:11:06.371Z,10.10
2019-02-09T11:16:14.120Z,9.97
2019-02-09T11:21:22.125Z,11.23
2019-02-09T11:26:29.103Z,10.97
2019-02-09T11:31:39.348Z,12.23
2019-02-09T11:36:50.056Z,11.13
2019-02-09T11:42:02.550Z,10.70
2019-02-09T11:47:10.571Z,11.10
2019-02-09T11:52:22.159Z,12.37
2019-02-09T11:57:49.388Z,4.97
2019-02-09T12:03:05.402Z,4.50
2019-02-09T12:08:12.680Z,3.67
2019-02-09T12:13:21.484Z,4.77
2019-02-09T12:18:31.366Z,4.37
2019-02-09T12:23:37.151Z,2.83
2019-02-09T12:28:42.447Z,1.80
2019-02-09T12:33:47.847Z,2.60
2019-02-09T12:38:53.263Z,1.97
2019-02-09T12:43:58.626Z,1.77
2019-02-09T12:49:04.650Z,1.47
2019-02-09T12:54:10.111Z,2.00
2019-02-09T12:59:15.700Z,2.20
2019-02-09T13:04:21.465Z,2.80
2019-02-09T13:09:29.482Z,2.10
2019-02-09T13:14:35.116Z,2.20
2019-02-09T13:19:41.443Z,2.33
2019-02-09T13:24:46.899Z,3.20
2019-02-09T13:29:52.682Z,2.90
2019-02-09T13:34:57.992Z,2.07
2019-02-09T13:40:03.636Z,2.13
2019-02-09T13:45:14.111Z,2.03
2019-02-09T13:50:19.543Z,1.43
2019-02-09T13:55:24.865Z,1.87
2019-02-09T14:00:30.875Z,0.80
2019-02-09T14:05:36.296Z,0.80
2019-02-09T14:10:41.664Z,1.40
2019-02-09T14:15:47.028Z,2.23
2019-02-09T14:20:52.344Z,1.73
2019-02-09T14:25:57.705Z,2.00
2019-02-09T14:31:03.005Z,1.63
2019-02-09T14:36:08.310Z,1.87
2019-02-09T14:41:14.697Z,2.63
2019-02-09T14:46:20.015Z,2.30
2019-02-09T14:51:25.334Z,3.67
2019-02-09T14:56:30.678Z,3.37
2019-02-09T15:01:36.030Z,6.67
2019-02-09T15:06:41.441Z,22.23
2019-02-09T15:11:46.764Z,12.10
2019-02-09T15:16:54.227Z,7.17
2019-02-09T15:21:59.527Z,2.30
2019-02-09T15:27:04.837Z,2.17
2019-02-09T15:32:10.146Z,1.80
2019-02-09T15:37:15.498Z,1.93
2019-02-09T15:42:21.600Z,2.60
2019-02-09T15:47:27.259Z,2.97
2019-02-09T15:52:32.661Z,3.20
2019-02-09T15:57:37.967Z,2.53
2019-02-09T16:02:43.412Z,4.30
2019-02-09T16:07:48.815Z,9.17
2019-02-09T16:12:54.202Z,5.50
2019-02-09T16:17:59.514Z,6.93
2019-02-09T16:23:06.242Z,5.00
2019-02-09T16:28:11.575Z,2.73
2019-02-09T16:33:17.285Z,2.03
2019-02-09T16:38:22.587Z,2.37
2019-02-09T16:43:27.917Z,2.97
2019-02-09T16:48:33.295Z,2.57
2019-02-09T16:53:38.693Z,3.53
2019-02-09T16:58:44.028Z,5.93
2019-02-09T17:03:50.379Z,7.10
2019-02-09T17:08:55.681Z,8.03
2019-02-09T17:14:00.995Z,4.33
2019-02-09T17:19:06.371Z,5.20
2019-02-09T17:24:11.683Z,2.37
2019-02-09T17:29:17.042Z,2.33
2019-02-09T17:34:22.383Z,2.10
2019-02-09T17:39:28.192Z,3.10
2019-02-09T17:44:33.972Z,2.80
2019-02-09T17:49:39.339Z,3.00
2019-02-09T17:54:44.706Z,2.80
2019-02-09T17:59:49.979Z,2.43
2019-02-09T18:04:55.468Z,2.77
2019-02-09T18:10:00.817Z,5.20
2019-02-09T18:15:07.663Z,4.97
2019-02-09T18:20:15.380Z,5.07
2019-02-09T18:25:20.882Z,6.20
2019-02-09T18:30:26.370Z,7.33
2019-02-09T18:35:31.938Z,8.27
2019-02-09T18:40:37.416Z,7.43
2019-02-09T18:45:42.868Z,7.50
2019-02-09T18:50:48.195Z,8.40
2019-02-09T18:55:53.495Z,8.40
2019-02-09T19:00:58.800Z,7.37
2019-02-09T19:06:04.411Z,12.30
2019-02-09T19:11:10.323Z,7.30
2019-02-09T19:16:15.781Z,6.53
2019-02-09T19:21:21.394Z,4.60
2019-02-09T19:26:26.806Z,3.90
2019-02-09T19:31:32.229Z,4.60
2019-02-09T19:36:37.668Z,8.67
2019-02-09T19:41:42.996Z,7.47
2019-02-09T19:46:48.314Z,6.37
2019-02-09T19:51:53.634Z,3.97
2019-02-09T19:56:58.975Z,4.10
2019-02-09T20:02:05.416Z,2.97
2019-02-09T20:07:10.864Z,2.60
2019-02-09T20:12:16.167Z,2.43
2019-02-09T20:17:22.579Z,2.90
2019-02-09T20:22:27.911Z,3.40
2019-02-09T20:27:33.239Z,3.20
2019-02-09T20:32:38.679Z,2.87
2019-02-09T20:37:43.387Z,2.80
2019-02-09T20:42:48.627Z,1.83
2019-02-09T20:47:53.986Z,2.10
2019-02-09T20:53:00.344Z,2.40
2019-02-09T20:58:07.259Z,2.50
2019-02-09T21:03:12.704Z,3.13
2019-02-09T21:08:18.721Z,2.20
2019-02-09T21:13:24.027Z,2.83
2019-02-09T21:18:30.071Z,2.63
2019-02-09T21:23:35.418Z,3.13
2019-02-09T21:28:40.963Z,5.23
2019-02-09T21:33:46.295Z,2.90
2019-02-09T21:38:51.610Z,1.37
2019-02-09T21:43:56.984Z,1.93
2019-02-09T21:49:02.299Z,2.87
2019-02-09T21:54:07.291Z,1.23
2019-02-09T21:59:12.604Z,2.00
2019-02-09T22:04:18.863Z,1.57
2019-02-09T22:09:23.551Z,2.00
2019-02-09T22:14:28.868Z,1.20
2019-02-09T22:19:34.264Z,2.03
2019-02-09T22:24:39.726Z,1.67
2019-02-09T22:29:45.084Z,2.07
2019-02-09T22:34:50.352Z,2.00
2019-02-09T22:39:55.241Z,1.07
2019-02-09T22:45:00.240Z,0.93
2019-02-09T22:50:07.607Z,1.13
2019-02-09T22:55:12.748Z,1.30
2019-02-09T23:00:26.474Z,1.70
2019-02-09T23:06:08.585Z,1.40
2019-02-09T23:11:13.951Z,1.07
2019-02-09T23:16:19.475Z,1.33
2019-02-09T23:21:24.268Z,1.10
2019-02-09T23:26:28.871Z,1.60
2019-02-09T23:31:34.231Z,1.30
2019-02-09T23:36:39.644Z,1.30
2019-02-09T23:41:45.405Z,1.40
2019-02-09T23:46:50.180Z,1.37
2019-02-09T23:51:56.490Z,1.30
2019-02-09T23:57:02.204Z,1.83
